createdAt,value
2023-04-29T00:01:38.796Z,2.40
2023-04-29T00:04:07.457Z,2.23
2023-04-29T00:06:35.742Z,2.43
2023-04-29T00:09:04.599Z,3.17
2023-04-29T00:11:32.639Z,3.00
2023-04-29T00:14:00.656Z,2.47
2023-04-29T00:16:28.670Z,2.63
2023-04-29T00:18:58.135Z,2.60
2023-04-29T00:21:27.406Z,3.10
2023-04-29T00:23:55.821Z,2.57
2023-04-29T00:26:23.809Z,2.80
2023-04-29T00:28:51.815Z,2.20
2023-04-29T00:31:19.827Z,2.70
2023-04-29T00:33:48.138Z,2.40
2023-04-29T00:36:17.522Z,3.03
2023-04-29T00:38:45.588Z,2.47
2023-04-29T00:41:13.933Z,2.60
2023-04-29T00:43:42.295Z,2.40
2023-04-29T00:46:10.722Z,2.87
2023-04-29T00:48:39.285Z,2.80
2023-04-29T00:51:08.483Z,2.27
2023-04-29T00:53:38.437Z,3.27
2023-04-29T00:56:07.520Z,2.43
2023-04-29T00:58:36.397Z,3.20
2023-04-29T01:01:05.166Z,2.87
2023-04-29T01:03:33.697Z,2.90
2023-04-29T01:06:14.238Z,2.23
2023-04-29T01:08:53.553Z,2.73
2023-04-29T01:11:26.022Z,2.50
2023-04-29T01:14:00.824Z,2.57
2023-04-29T01:16:35.828Z,2.80
2023-04-29T01:19:08.491Z,3.83
2023-04-29T01:21:48.650Z,2.10
2023-04-29T01:24:18.576Z,2.67
2023-04-29T01:26:54.912Z,2.63
2023-04-29T01:29:32.751Z,3.90
2023-04-29T01:32:09.104Z,3.43
2023-04-29T01:34:43.346Z,2.90
2023-04-29T01:37:19.437Z,3.10
2023-04-29T01:40:00.073Z,2.93
2023-04-29T01:42:37.435Z,3.17
2023-04-29T01:45:09.537Z,2.60
2023-04-29T01:47:38.821Z,3.10
2023-04-29T01:50:07.821Z,3.50
2023-04-29T01:52:36.737Z,3.17
2023-04-29T01:55:07.932Z,2.80
2023-04-29T01:57:35.997Z,2.93
2023-04-29T02:00:04.828Z,2.50
2023-04-29T02:02:32.976Z,3.10
2023-04-29T02:05:01.296Z,3.20
2023-04-29T02:07:29.374Z,2.50
2023-04-29T02:09:57.439Z,3.17
2023-04-29T02:12:26.803Z,3.00
2023-04-29T02:14:54.877Z,2.97
2023-04-29T02:17:22.952Z,3.23
2023-04-29T02:19:51.614Z,2.10
2023-04-29T02:22:19.786Z,2.53
2023-04-29T02:24:47.830Z,2.60
2023-04-29T02:27:15.883Z,1.80
2023-04-29T02:29:45.240Z,2.03
2023-04-29T02:32:15.347Z,3.00
2023-04-29T02:34:43.692Z,2.77
2023-04-29T02:37:11.774Z,2.33
2023-04-29T02:39:39.847Z,2.33
2023-04-29T02:42:07.907Z,2.63
2023-04-29T02:44:35.991Z,2.30
2023-04-29T02:47:05.470Z,2.80
2023-04-29T02:49:33.633Z,2.80
2023-04-29T02:52:01.664Z,2.83
2023-04-29T02:54:29.713Z,2.60
2023-04-29T02:56:58.738Z,1.90
2023-04-29T02:59:26.759Z,2.47
2023-04-29T03:01:55.201Z,1.77
2023-04-29T03:04:24.771Z,1.83
2023-04-29T03:06:52.925Z,2.40
2023-04-29T03:09:21.615Z,2.50
2023-04-29T03:11:49.694Z,2.37
2023-04-29T03:14:17.915Z,2.00
2023-04-29T03:16:46.042Z,2.47
2023-04-29T03:19:14.157Z,2.10
2023-04-29T03:21:43.613Z,2.07
2023-04-29T03:24:11.676Z,1.90
2023-04-29T03:26:39.721Z,1.53
2023-04-29T03:29:07.731Z,1.90
2023-04-29T03:31:36.123Z,3.03
2023-04-29T03:34:04.196Z,2.30
2023-04-29T03:36:32.327Z,2.37
2023-04-29T03:39:01.716Z,2.00
2023-04-29T03:41:29.774Z,2.43
2023-04-29T03:44:00.723Z,2.40
2023-04-29T03:46:29.071Z,2.20
2023-04-29T03:48:57.671Z,2.60
2023-04-29T03:51:26.381Z,2.40
2023-04-29T03:53:56.290Z,2.80
2023-04-29T03:56:26.489Z,3.00
2023-04-29T03:58:54.798Z,2.00
2023-04-29T04:01:22.909Z,2.27
2023-04-29T04:03:51.366Z,2.20
2023-04-29T04:06:19.545Z,2.70
2023-04-29T04:08:47.604Z,2.30
2023-04-29T04:11:16.075Z,2.20
2023-04-29T04:13:45.593Z,2.30
2023-04-29T04:16:13.918Z,3.90
2023-04-29T04:18:42.012Z,4.20
2023-04-29T04:21:10.719Z,4.57
2023-04-29T04:23:40.532Z,4.00
2023-04-29T04:26:09.012Z,2.90
2023-04-29T04:28:37.101Z,2.47
2023-04-29T04:31:06.721Z,2.60
2023-04-29T04:33:35.205Z,2.50
2023-04-29T04:36:03.287Z,2.60
2023-04-29T04:38:32.966Z,2.90
2023-04-29T04:41:01.255Z,3.10
2023-04-29T04:43:29.286Z,2.97
2023-04-29T04:45:57.524Z,3.53
2023-04-29T04:48:27.561Z,3.50
2023-04-29T04:50:55.601Z,3.83
2023-04-29T04:53:23.786Z,3.50
2023-04-29T04:55:51.831Z,3.80
2023-04-29T04:58:19.847Z,3.00
2023-04-29T05:00:47.896Z,3.17
2023-04-29T05:03:16.153Z,3.40
2023-04-29T05:05:45.755Z,4.07
2023-04-29T05:08:13.785Z,3.67
2023-04-29T05:10:41.797Z,4.07
2023-04-29T05:13:09.847Z,4.10
2023-04-29T05:15:37.862Z,4.23
2023-04-29T05:18:06.108Z,3.90
2023-04-29T05:20:34.204Z,4.57
2023-04-29T05:23:03.673Z,3.30
2023-04-29T05:25:31.720Z,4.03
2023-04-29T05:27:59.760Z,4.23
2023-04-29T05:30:27.839Z,5.10
2023-04-29T05:32:56.330Z,3.50
2023-04-29T05:35:24.520Z,6.20
2023-04-29T05:37:52.548Z,8.13
2023-04-29T05:40:23.219Z,8.73
2023-04-29T05:42:51.977Z,6.90
2023-04-29T05:45:20.170Z,7.40
2023-04-29T05:47:48.251Z,6.07
2023-04-29T05:50:16.456Z,6.40
2023-04-29T05:52:44.474Z,5.63
2023-04-29T05:55:12.469Z,5.77
2023-04-29T05:57:41.902Z,5.50
2023-04-29T06:00:10.988Z,5.00
2023-04-29T06:02:50.663Z,3.67
2023-04-29T06:05:26.508Z,4.57
2023-04-29T06:07:54.752Z,4.07
2023-04-29T06:10:22.754Z,4.37
2023-04-29T06:12:52.274Z,2.40
2023-04-29T06:15:20.309Z,5.03
2023-04-29T06:17:48.728Z,2.75
2023-04-29T06:20:18.246Z,2.67
2023-04-29T06:22:46.507Z,2.63
2023-04-29T06:25:15.043Z,2.30
2023-04-29T06:27:43.058Z,2.47
2023-04-29T06:30:13.232Z,1.83
2023-04-29T06:32:43.604Z,2.30
2023-04-29T06:35:11.726Z,2.60
2023-04-29T06:37:39.755Z,2.30
2023-04-29T06:40:09.073Z,2.07
2023-04-29T06:42:37.890Z,2.40
2023-04-29T06:45:06.933Z,1.87
2023-04-29T06:47:36.426Z,2.07
2023-04-29T06:50:05.187Z,1.93
2023-04-29T06:52:33.526Z,1.60
2023-04-29T06:55:01.549Z,1.70
2023-04-29T06:57:29.543Z,1.80
2023-04-29T06:59:58.129Z,1.60
2023-04-29T07:02:26.646Z,1.70
2023-04-29T07:04:56.184Z,2.00
2023-04-29T07:07:24.317Z,1.40
2023-04-29T07:09:53.651Z,2.60
2023-04-29T07:12:21.891Z,1.87
2023-04-29T07:14:50.044Z,1.97
2023-04-29T07:17:18.193Z,2.13
2023-04-29T07:19:46.418Z,2.43
2023-04-29T07:22:16.298Z,1.90
2023-04-29T07:24:44.374Z,1.93
2023-04-29T07:27:12.387Z,2.17
2023-04-29T07:29:40.402Z,1.60
2023-04-29T07:32:08.883Z,1.57
2023-04-29T07:34:36.889Z,1.90
2023-04-29T07:37:04.898Z,1.80
2023-04-29T07:39:35.687Z,2.00
2023-04-29T07:42:04.630Z,1.40
2023-04-29T07:44:32.738Z,1.90
2023-04-29T07:47:00.811Z,1.70
2023-04-29T07:49:28.950Z,2.20
2023-04-29T07:51:56.955Z,1.30
2023-04-29T07:54:25.373Z,1.80
2023-04-29T07:56:54.738Z,1.20
2023-04-29T07:59:22.813Z,1.27
2023-04-29T08:01:50.855Z,1.47
2023-04-29T08:04:19.480Z,1.30
2023-04-29T08:06:48.624Z,1.50
2023-04-29T08:09:17.313Z,1.20
2023-04-29T08:11:45.961Z,1.10
2023-04-29T08:14:15.415Z,1.53
2023-04-29T08:16:43.599Z,1.43
2023-04-29T08:19:11.805Z,1.20
2023-04-29T08:21:39.840Z,1.37
2023-04-29T08:24:07.996Z,1.13
2023-04-29T08:26:36.061Z,1.00
2023-04-29T08:29:04.084Z,1.47
2023-04-29T08:31:33.758Z,1.20
2023-04-29T08:34:03.325Z,2.00
2023-04-29T08:36:32.545Z,1.77
2023-04-29T08:39:01.733Z,1.23
2023-04-29T08:41:30.758Z,1.00
2023-04-29T08:44:01.680Z,1.37
2023-04-29T08:46:30.377Z,1.57
2023-04-29T08:49:00.673Z,1.23
2023-04-29T08:51:28.794Z,1.27
2023-04-29T08:53:58.779Z,1.80
2023-04-29T08:56:28.850Z,1.20
2023-04-29T08:58:59.068Z,1.30
2023-04-29T09:01:29.765Z,1.30
2023-04-29T09:04:04.468Z,1.67
2023-04-29T09:06:34.906Z,1.37
2023-04-29T09:09:04.084Z,1.10
2023-04-29T09:11:33.106Z,1.43
2023-04-29T09:14:02.352Z,1.03
2023-04-29T09:16:30.835Z,1.80
2023-04-29T09:19:01.281Z,1.07
2023-04-29T09:21:32.271Z,1.00
2023-04-29T09:24:03.957Z,1.47
2023-04-29T09:26:37.227Z,1.53
2023-04-29T09:29:09.344Z,1.00
2023-04-29T09:31:39.735Z,1.30
2023-04-29T09:34:09.978Z,1.40
2023-04-29T09:36:39.692Z,1.70
2023-04-29T09:39:11.672Z,1.23
2023-04-29T09:41:41.627Z,1.30
2023-04-29T09:44:10.913Z,1.47
2023-04-29T09:46:39.216Z,1.73
2023-04-29T09:49:27.059Z,1.33
2023-04-29T09:51:56.428Z,0.97
2023-04-29T09:54:25.639Z,1.23
2023-04-29T09:56:54.589Z,1.23
2023-04-29T09:59:23.118Z,1.40
2023-04-29T10:01:53.079Z,1.80
2023-04-29T10:04:24.218Z,1.67
2023-04-29T10:06:53.947Z,1.40
2023-04-29T10:09:23.382Z,1.80
2023-04-29T10:11:52.810Z,1.63
2023-04-29T10:14:24.381Z,1.93
2023-04-29T10:17:00.233Z,1.47
2023-04-29T10:19:35.454Z,1.23
2023-04-29T10:22:10.929Z,1.70
2023-04-29T10:24:40.123Z,1.30
2023-04-29T10:27:09.701Z,1.70
2023-04-29T10:29:39.453Z,1.57
2023-04-29T10:32:10.949Z,1.50
2023-04-29T10:34:40.577Z,2.03
2023-04-29T10:37:11.324Z,1.57
2023-04-29T10:39:47.765Z,2.10
2023-04-29T10:42:27.080Z,1.70
2023-04-29T10:45:19.534Z,1.77
2023-04-29T10:48:15.426Z,1.90
2023-04-29T10:51:06.033Z,1.73
2023-04-29T10:53:34.329Z,1.17
2023-04-29T10:56:08.762Z,1.87
2023-04-29T10:58:42.992Z,1.97
2023-04-29T11:01:12.524Z,2.10
2023-04-29T11:03:55.005Z,1.90
2023-04-29T11:06:26.764Z,2.03
2023-04-29T11:09:05.955Z,1.93
2023-04-29T11:11:44.430Z,1.83
2023-04-29T11:14:16.043Z,1.80
2023-04-29T11:16:52.843Z,1.97
2023-04-29T11:19:21.468Z,1.67
2023-04-29T11:22:15.179Z,1.80
2023-04-29T11:24:54.604Z,1.80
2023-04-29T11:27:26.418Z,1.70
2023-04-29T11:29:58.579Z,1.67
2023-04-29T11:32:27.964Z,2.10
2023-04-29T11:34:56.590Z,1.30
2023-04-29T11:37:28.098Z,2.37
2023-04-29T11:40:02.126Z,2.10
2023-04-29T11:42:30.505Z,2.47
2023-04-29T11:45:00.400Z,2.10
2023-04-29T11:47:29.796Z,1.77
2023-04-29T11:50:05.090Z,1.97
2023-04-29T11:52:36.246Z,1.70
2023-04-29T11:55:04.653Z,1.63
2023-04-29T11:57:33.140Z,1.67
2023-04-29T12:00:01.586Z,2.27
2023-04-29T12:02:33.373Z,1.80
2023-04-29T12:05:02.618Z,1.80
2023-04-29T12:07:31.127Z,2.77
2023-04-29T12:10:00.670Z,2.80
2023-04-29T12:12:29.279Z,1.77
2023-04-29T12:14:57.461Z,1.70
2023-04-29T12:17:26.091Z,2.00
2023-04-29T12:19:54.215Z,2.17
2023-04-29T12:22:22.362Z,1.90
2023-04-29T12:24:54.487Z,1.60
2023-04-29T12:27:24.765Z,2.10
2023-04-29T12:29:54.231Z,1.90
2023-04-29T12:32:25.027Z,1.63
2023-04-29T12:34:53.855Z,2.00
2023-04-29T12:37:23.778Z,2.00
2023-04-29T12:39:52.794Z,1.60
2023-04-29T12:42:20.880Z,1.73
2023-04-29T12:44:50.527Z,1.67
2023-04-29T12:47:18.852Z,2.30
2023-04-29T12:49:48.229Z,1.50
2023-04-29T12:52:16.449Z,1.80
2023-04-29T12:54:45.030Z,1.60
2023-04-29T12:57:14.464Z,1.50
2023-04-29T12:59:42.565Z,2.17
2023-04-29T13:02:12.388Z,1.63
2023-04-29T13:04:40.790Z,1.90
2023-04-29T13:07:09.374Z,1.77
2023-04-29T13:09:38.271Z,1.60
2023-04-29T13:12:09.633Z,1.17
2023-04-29T13:14:37.853Z,1.50
2023-04-29T13:17:06.397Z,1.50
2023-04-29T13:22:07.793Z,2.20
2023-04-29T13:24:36.817Z,1.57
2023-04-29T13:27:05.836Z,1.70
2023-04-29T13:29:33.976Z,1.90
2023-04-29T13:32:02.077Z,2.17
2023-04-29T13:34:30.256Z,2.17
2023-04-29T13:37:00.877Z,1.63
2023-04-29T13:39:30.078Z,2.40
2023-04-29T13:41:59.661Z,1.97
2023-04-29T13:44:36.039Z,2.00
2023-04-29T13:47:24.679Z,2.70
2023-04-29T13:50:25.576Z,2.27
2023-04-29T13:56:03.869Z,2.30
2023-04-29T14:03:08.443Z,1.83
2023-04-29T14:05:37.589Z,2.20
2023-04-29T14:08:07.562Z,2.90
2023-04-29T14:10:36.892Z,2.33
2023-04-29T14:13:05.331Z,2.37
2023-04-29T14:15:33.754Z,2.40
2023-04-29T14:18:02.159Z,2.43
2023-04-29T14:20:30.575Z,2.10
2023-04-29T14:22:58.938Z,2.40
2023-04-29T14:25:29.142Z,1.70
2023-04-29T14:27:58.027Z,2.13
2023-04-29T14:30:26.393Z,2.20
2023-04-29T14:32:54.778Z,3.00
2023-04-29T14:35:23.118Z,2.50
2023-04-29T14:37:51.519Z,3.30
2023-04-29T14:40:19.907Z,2.87
2023-04-29T14:42:49.655Z,3.30
2023-04-29T14:45:18.240Z,2.57
2023-04-29T14:47:46.861Z,2.57
2023-04-29T14:50:16.259Z,3.37
2023-04-29T14:52:44.617Z,3.60
2023-04-29T14:55:12.967Z,3.90
2023-04-29T14:57:41.281Z,3.17
2023-04-29T15:00:12.212Z,3.00
2023-04-29T15:02:40.575Z,3.20
2023-04-29T15:05:09.388Z,3.93
2023-04-29T15:07:37.778Z,3.63
2023-04-29T15:10:09.336Z,3.20
2023-04-29T15:12:37.906Z,4.57
2023-04-29T15:15:06.648Z,3.77
2023-04-29T15:17:36.369Z,3.73
2023-04-29T15:20:04.829Z,4.10
2023-04-29T15:22:33.277Z,3.00
2023-04-29T15:25:02.029Z,3.70
2023-04-29T15:27:30.380Z,3.90
2023-04-29T15:29:58.753Z,4.30
2023-04-29T15:32:31.570Z,3.50
2023-04-29T15:35:01.547Z,4.87
2023-04-29T15:37:30.708Z,4.47
2023-04-29T15:40:00.472Z,4.80
2023-04-29T15:42:29.006Z,4.10
2023-04-29T15:44:57.336Z,5.23
2023-04-29T15:47:25.729Z,4.17
2023-04-29T15:49:56.251Z,4.27
2023-04-29T15:52:26.314Z,4.33
2023-04-29T15:54:54.684Z,4.27
2023-04-29T15:57:23.155Z,5.37
2023-04-29T15:59:51.915Z,3.53
2023-04-29T16:02:21.197Z,4.23
2023-04-29T16:04:49.746Z,3.20
2023-04-29T16:07:18.726Z,4.77
2023-04-29T16:09:48.429Z,4.13
2023-04-29T16:12:16.810Z,4.93
2023-04-29T16:14:45.185Z,4.90
2023-04-29T16:17:13.530Z,3.57
2023-04-29T16:19:41.907Z,4.47
2023-04-29T16:22:10.261Z,5.30
2023-04-29T16:24:38.618Z,4.53
2023-04-29T16:27:08.313Z,5.20
2023-04-29T16:29:36.692Z,5.70
2023-04-29T16:32:05.122Z,5.93
2023-04-29T16:34:33.496Z,4.40
2023-04-29T16:37:01.875Z,5.20
2023-04-29T16:39:30.214Z,4.73
2023-04-29T16:41:59.461Z,5.20
2023-04-29T16:44:29.224Z,4.27
2023-04-29T16:46:57.760Z,4.30
2023-04-29T16:49:27.305Z,3.80
2023-04-29T16:51:55.682Z,4.30
2023-04-29T16:54:24.136Z,3.73
2023-04-29T16:56:52.484Z,3.90
2023-04-29T16:59:20.876Z,4.80
2023-04-29T17:01:50.694Z,5.20
2023-04-29T17:04:19.108Z,4.70
2023-04-29T17:06:47.679Z,4.83
2023-04-29T17:09:16.784Z,4.17
2023-04-29T17:11:45.125Z,5.40
2023-04-29T17:14:13.457Z,4.57
2023-04-29T17:16:41.914Z,4.47
2023-04-29T17:19:11.671Z,5.40
2023-04-29T17:21:40.088Z,5.10
2023-04-29T17:24:08.439Z,3.57
2023-04-29T17:26:36.852Z,5.23
2023-04-29T17:29:05.188Z,4.03
2023-04-29T17:31:45.357Z,4.23
2023-04-29T17:34:19.726Z,3.87
2023-04-29T17:36:48.476Z,3.70
2023-04-29T17:39:16.834Z,3.70
2023-04-29T17:41:45.693Z,4.23
2023-04-29T17:44:14.327Z,3.60
2023-04-29T17:46:42.865Z,4.40
2023-04-29T17:49:11.530Z,3.17
2023-04-29T17:51:41.446Z,3.20
2023-04-29T17:54:10.380Z,4.27
2023-04-29T17:56:38.822Z,4.10
2023-04-29T17:59:08.159Z,3.53
2023-04-29T18:01:37.236Z,3.30
2023-04-29T18:04:06.020Z,4.23
2023-04-29T18:06:35.004Z,3.53
2023-04-29T18:09:05.324Z,4.50
2023-04-29T18:11:33.698Z,4.60
2023-04-29T18:14:02.068Z,3.70
2023-04-29T18:16:30.486Z,2.77
2023-04-29T18:18:58.843Z,4.23
2023-04-29T18:21:28.253Z,3.80
2023-04-29T18:23:56.642Z,4.30
2023-04-29T18:26:26.332Z,3.93
2023-04-29T18:28:54.650Z,3.53
2023-04-29T18:31:26.444Z,3.33
2023-04-29T18:33:55.012Z,3.70
2023-04-29T18:36:23.761Z,4.40
2023-04-29T18:38:52.139Z,4.20
2023-04-29T18:41:20.773Z,3.87
2023-04-29T18:43:50.544Z,2.97
2023-04-29T18:46:18.933Z,4.57
2023-04-29T18:48:47.318Z,3.73
2023-04-29T18:51:15.674Z,4.00
2023-04-29T18:53:43.997Z,4.40
2023-04-29T18:56:12.449Z,3.63
2023-04-29T18:58:41.344Z,4.07
2023-04-29T19:01:11.135Z,4.30
2023-04-29T19:03:40.262Z,3.93
2023-04-29T19:06:08.656Z,3.80
2023-04-29T19:08:36.991Z,4.37
2023-04-29T19:11:05.295Z,4.03
2023-04-29T19:13:33.604Z,4.10
2023-04-29T19:16:01.976Z,3.60
2023-04-29T19:18:31.764Z,4.17
2023-04-29T19:21:00.183Z,3.80
2023-04-29T19:23:28.514Z,3.77
2023-04-29T19:25:56.885Z,3.70
2023-04-29T19:28:25.248Z,3.87
2023-04-29T19:30:53.588Z,3.20
2023-04-29T19:33:21.906Z,3.77
2023-04-29T19:35:51.616Z,3.33
2023-04-29T19:38:20.142Z,3.40
2023-04-29T19:40:49.025Z,2.67
2023-04-29T19:43:18.002Z,3.67
2023-04-29T19:45:46.425Z,3.83
2023-04-29T19:48:14.806Z,3.43
2023-04-29T19:50:43.361Z,3.30
2023-04-29T19:53:13.054Z,3.77
2023-04-29T19:55:41.489Z,3.43
2023-04-29T19:58:10.481Z,3.67
2023-04-29T20:00:38.886Z,2.70
2023-04-29T20:03:07.252Z,3.20
2023-04-29T20:05:35.641Z,3.60
2023-04-29T20:08:03.993Z,3.60
2023-04-29T20:10:33.821Z,4.00
2023-04-29T20:13:02.196Z,4.37
2023-04-29T20:15:30.788Z,2.70
2023-04-29T20:17:59.190Z,3.13
2023-04-29T20:20:27.635Z,3.67
2023-04-29T20:23:00.163Z,4.73
2023-04-29T20:25:28.784Z,3.63
2023-04-29T20:27:59.014Z,2.83
2023-04-29T20:30:27.410Z,3.70
2023-04-29T20:32:55.971Z,3.17
2023-04-29T20:35:24.577Z,3.50
2023-04-29T20:37:52.915Z,4.03
2023-04-29T20:40:21.413Z,3.70
2023-04-29T20:42:49.734Z,3.83
2023-04-29T20:45:19.506Z,3.20
2023-04-29T20:47:48.020Z,3.73
2023-04-29T20:50:16.367Z,3.93
2023-04-29T20:52:46.034Z,3.33
2023-04-29T20:55:15.986Z,4.23
2023-04-29T20:57:44.335Z,5.70
2023-04-29T21:00:14.280Z,4.37
2023-04-29T21:02:44.050Z,5.50
2023-04-29T21:05:12.443Z,4.37
2023-04-29T21:07:40.759Z,3.47
2023-04-29T21:10:09.570Z,4.23
2023-04-29T21:12:37.910Z,3.43
2023-04-29T21:15:06.633Z,4.40
2023-04-29T21:17:34.988Z,3.20
2023-04-29T21:20:04.922Z,3.00
2023-04-29T21:22:33.233Z,3.17
2023-04-29T21:25:01.654Z,3.87
2023-04-29T21:27:30.001Z,4.27
2023-04-29T21:29:58.417Z,3.77
2023-04-29T21:32:26.782Z,4.27
2023-04-29T21:34:55.121Z,4.50
2023-04-29T21:37:24.855Z,3.60
2023-04-29T21:39:53.428Z,5.10
2023-04-29T21:42:25.399Z,3.93
2023-04-29T21:44:53.955Z,3.63
2023-04-29T21:47:22.335Z,3.80
2023-04-29T21:49:51.105Z,4.60
2023-04-29T21:52:19.750Z,4.30
2023-04-29T21:54:49.456Z,3.27
2023-04-29T21:57:18.380Z,3.93
2023-04-29T21:59:48.880Z,3.80
2023-04-29T22:02:22.619Z,4.13
2023-04-29T22:04:51.719Z,4.30
2023-04-29T22:07:20.222Z,4.60
2023-04-29T22:09:50.548Z,4.30
2023-04-29T22:12:19.172Z,4.27
2023-04-29T22:14:47.748Z,4.57
2023-04-29T22:17:16.187Z,4.30
2023-04-29T22:19:44.825Z,4.10
2023-04-29T22:22:13.139Z,3.80
2023-04-29T22:24:41.499Z,4.57
2023-04-29T22:27:11.222Z,4.80
2023-04-29T22:29:39.558Z,4.20
2023-04-29T22:32:08.263Z,4.47
2023-04-29T22:34:36.768Z,4.80
2023-04-29T22:37:05.093Z,4.50
2023-04-29T22:39:33.397Z,4.50
2023-04-29T22:42:04.660Z,4.90
2023-04-29T22:44:34.321Z,5.27
2023-04-29T22:47:03.210Z,3.87
2023-04-29T22:49:31.573Z,4.90
2023-04-29T22:51:59.863Z,4.00
2023-04-29T22:54:28.207Z,4.50
2023-04-29T22:56:56.566Z,5.33
2023-04-29T22:59:24.885Z,4.40
2023-04-29T23:01:54.716Z,3.87
2023-04-29T23:04:24.746Z,4.53
2023-04-29T23:06:53.657Z,3.87
2023-04-29T23:09:22.014Z,5.00
2023-04-29T23:11:50.398Z,3.77
2023-04-29T23:14:18.917Z,4.73
2023-04-29T23:16:47.290Z,4.30
2023-04-29T23:19:16.988Z,5.27
2023-04-29T23:21:45.293Z,4.77
2023-04-29T23:24:13.615Z,4.13
2023-04-29T23:26:41.989Z,5.53
2023-04-29T23:29:10.329Z,4.93
2023-04-29T23:31:38.691Z,5.20
2023-04-29T23:34:07.882Z,5.00
2023-04-29T23:36:37.808Z,5.07
2023-04-29T23:39:06.180Z,4.93
2023-04-29T23:41:34.625Z,4.73
2023-04-29T23:44:02.963Z,4.90
2023-04-29T23:46:31.596Z,5.70
2023-04-29T23:49:00.073Z,4.70
2023-04-29T23:51:28.404Z,4.60
2023-04-29T23:53:58.094Z,4.20
2023-04-29T23:56:29.031Z,5.20
2023-04-29T23:58:57.450Z,4.10
